Time;durP1;ratioP1;P1;durP2;ratioP2;P2;SDS_P1;SDS_P2;PMS_P1;PMS_P2;Temp;Humidity;BMP_temperature;BMP_pressure;BME280_temperature;BME280_humidity;BME280_pressure;Samples;Min_cycle;Max_cycle;Signal;HPM_P1;HPM_P2
2023/09/30 00:01:10;;;;;;;29.00;16.50;;;;;;;16.07;73.39;99389.15;232794;214;139430;-61
2023/09/30 00:06:14;;;;;;;28.50;17.70;;;;;;;16.08;73.54;99387.98;232777;214;139290;-60
2023/09/30 00:11:18;;;;;;;26.70;17.80;;;;;;;16.10;73.46;99384.24;232774;214;147613;-60
2023/09/30 00:16:22;;;;;;;27.00;17.10;;;;;;;16.08;73.45;99379.92;232647;214;138427;-62
2023/09/30 00:21:26;;;;;;;27.20;18.10;;;;;;;16.04;73.47;99376.85;232768;214;138125;-60
2023/09/30 00:26:30;;;;;;;31.60;18.70;;;;;;;15.99;73.54;99373.27;232724;214;148089;-60
2023/09/30 00:31:34;;;;;;;26.40;18.10;;;;;;;15.93;73.68;99371.64;232703;214;141144;-61
2023/09/30 00:36:37;;;;;;;24.20;16.60;;;;;;;15.84;73.86;99367.86;232863;214;138009;-63
2023/09/30 00:41:41;;;;;;;20.40;15.40;;;;;;;15.79;73.97;99369.64;232738;214;148667;-62
2023/09/30 00:46:45;;;;;;;25.70;17.60;;;;;;;15.80;74.14;99372.13;232806;213;138183;-60
2023/09/30 00:51:49;;;;;;;27.20;16.90;;;;;;;15.83;74.13;99364.01;232925;214;137827;-62
2023/09/30 00:57:00;;;;;;;27.40;17.40;;;;;;;15.82;73.93;99362.59;232641;214;148072;-62
2023/09/30 01:02:05;;;;;;;31.30;17.40;;;;;;;15.79;74.01;99363.22;232787;213;138204;-62
2023/09/30 01:07:11;;;;;;;27.20;17.90;;;;;;;15.75;74.16;99361.73;232840;214;137225;-62
2023/09/30 01:12:15;;;;;;;;;;;;;;;15.68;74.30;99360.50;232709;214;146426;-61
2023/09/30 01:17:19;;;;;;;29.50;16.40;;;;;;;15.64;74.50;99356.51;232759;214;139444;-62
2023/09/30 01:22:24;;;;;;;23.40;17.00;;;;;;;15.69;74.65;99350.09;232808;214;138197;-62
2023/09/30 01:27:29;;;;;;;28.20;17.10;;;;;;;15.74;74.32;99345.69;232807;214;148558;-64
2023/09/30 01:32:33;;;;;;;26.00;16.40;;;;;;;15.71;74.16;99344.75;232614;214;138115;-64
2023/09/30 01:37:37;;;;;;;24.90;16.20;;;;;;;15.67;74.38;99338.21;232630;214;137039;-64
2023/09/30 01:42:41;;;;;;;25.30;17.10;;;;;;;15.62;74.42;99337.38;232878;214;147329;-63
2023/09/30 01:47:44;;;;;;;24.20;16.20;;;;;;;15.58;74.48;99336.55;232710;214;141776;-63
2023/09/30 01:52:48;;;;;;;22.70;15.30;;;;;;;15.57;74.58;99333.02;232738;214;138148;-62
2023/09/30 01:57:52;;;;;;;24.00;15.90;;;;;;;15.58;74.63;99336.39;232854;214;150003;-64
2023/09/30 02:02:57;;;;;;;25.40;16.10;;;;;;;15.58;74.61;99337.94;232728;214;142613;-57
2023/09/30 02:08:05;;;;;;;23.00;15.50;;;;;;;15.57;74.60;99334.68;232826;214;140080;-60
2023/09/30 02:13:09;;;;;;;24.40;15.30;;;;;;;15.55;74.49;99332.73;232799;214;148274;-61
2023/09/30 02:18:13;;;;;;;22.80;14.60;;;;;;;15.48;74.83;99325.89;232777;214;139746;-63
2023/09/30 02:23:17;;;;;;;19.50;13.60;;;;;;;15.46;75.03;99326.42;232730;214;137290;-62
2023/09/30 02:28:21;;;;;;;22.10;13.40;;;;;;;15.43;75.10;99324.52;232644;214;147355;-59
2023/09/30 02:33:26;;;;;;;24.30;14.20;;;;;;;15.44;75.33;99320.15;232565;214;139546;-57
2023/09/30 02:38:31;;;;;;;19.70;14.20;;;;;;;15.46;75.31;99320.52;232620;214;138631;-58
2023/09/30 02:43:37;;;;;;;20.80;14.40;;;;;;;15.47;75.37;99319.95;232771;214;147940;-59
2023/09/30 02:48:41;;;;;;;18.80;12.10;;;;;;;15.47;75.39;99316.30;232820;214;139693;-58
2023/09/30 02:53:48;;;;;;;225.40;174.80;;;;;;;15.58;75.72;99316.17;232727;214;137407;-61
2023/09/30 02:58:52;;;;;;;22.80;13.80;;;;;;;15.67;75.62;99313.38;232831;214;148053;-60
2023/09/30 03:03:56;;;;;;;78.90;58.00;;;;;;;15.73;75.74;99308.20;232737;214;138741;-60
2023/09/30 03:09:02;;;;;;;26.30;20.50;;;;;;;15.82;75.89;99309.70;232708;214;137650;-59
2023/09/30 03:14:07;;;;;;;14.10;9.50;;;;;;;15.95;75.39;99304.86;232742;214;147316;-59
2023/09/30 03:19:11;;;;;;;11.40;8.40;;;;;;;16.19;74.30;99292.21;232768;214;137668;-56
2023/09/30 03:24:16;;;;;;;9.80;7.50;;;;;;;16.39;72.19;99287.33;232719;214;137457;-59
2023/09/30 03:29:20;;;;;;;18.40;14.70;;;;;;;16.57;72.91;99286.08;232677;214;148902;-59
2023/09/30 03:34:24;;;;;;;13.90;10.10;;;;;;;16.89;71.89;99287.02;232769;214;138066;-59
2023/09/30 03:39:28;;;;;;;14.20;7.00;;;;;;;16.84;71.64;99287.04;232705;214;138148;-58
2023/09/30 03:44:32;;;;;;;11.70;6.70;;;;;;;16.80;70.50;99286.70;232729;214;148044;-58
2023/09/30 03:49:38;;;;;;;12.80;7.80;;;;;;;16.89;70.00;99295.61;232719;214;138035;-61
2023/09/30 03:54:42;;;;;;;11.60;7.90;;;;;;;16.96;69.25;99291.08;232911;214;137074;-56
2023/09/30 03:59:46;;;;;;;11.30;7.50;;;;;;;16.97;70.15;99291.15;232737;214;147516;-60
2023/09/30 04:04:53;;;;;;;13.60;8.40;;;;;;;16.94;70.24;99287.44;232718;214;138775;-60
2023/09/30 04:09:57;;;;;;;12.00;8.10;;;;;;;16.92;69.08;99284.56;232771;214;136953;-60
2023/09/30 04:15:03;;;;;;;12.10;7.90;;;;;;;16.94;68.61;99283.02;232670;214;149780;-58
2023/09/30 04:20:16;;;;;;;17.90;9.60;;;;;;;16.92;68.79;99283.18;232752;214;139916;-60
2023/09/30 04:25:20;;;;;;;13.90;8.60;;;;;;;16.90;67.99;99288.48;232897;214;138065;-60
2023/09/30 04:30:24;;;;;;;14.40;8.10;;;;;;;16.90;67.90;99290.52;232681;214;148469;-56
2023/09/30 04:35:30;;;;;;;12.20;7.70;;;;;;;16.86;67.43;99296.60;232676;214;140091;-59
2023/09/30 04:40:33;;;;;;;10.80;7.30;;;;;;;16.86;67.22;99300.55;232687;214;137926;-59
2023/09/30 04:45:37;;;;;;;13.40;8.10;;;;;;;16.88;67.08;99306.13;232646;214;148649;-59
2023/09/30 04:50:41;;;;;;;13.70;8.00;;;;;;;16.93;66.81;99314.77;232658;214;140469;-61
2023/09/30 04:55:50;;;;;;;10.80;8.10;;;;;;;17.00;66.49;99313.48;232685;214;137884;-59
2023/09/30 05:00:53;;;;;;;12.80;7.80;;;;;;;17.03;66.45;99315.73;232801;214;148290;-60
2023/09/30 05:05:58;;;;;;;11.90;7.90;;;;;;;17.05;66.12;99315.60;232698;214;141098;-58
2023/09/30 05:11:02;;;;;;;11.20;7.70;;;;;;;17.08;65.76;99324.27;232856;214;136819;-59
2023/09/30 05:16:09;;;;;;;18.00;8.00;;;;;;;17.11;65.57;99331.05;232638;214;148417;-59
2023/09/30 05:21:13;;;;;;;15.40;8.00;;;;;;;17.13;65.57;99334.64;232715;214;139901;-58
2023/09/30 05:26:17;;;;;;;12.00;7.10;;;;;;;17.17;65.50;99342.65;232650;214;136927;-60
2023/09/30 05:31:21;;;;;;;13.40;7.60;;;;;;;17.22;65.37;99348.16;232826;214;148128;-58
2023/09/30 05:36:25;;;;;;;10.90;7.30;;;;;;;17.28;65.16;99358.14;232831;214;139912;-59
2023/09/30 05:41:29;;;;;;;14.10;7.50;;;;;;;17.32;65.09;99359.95;232704;214;137755;-57
2023/09/30 05:46:33;;;;;;;11.50;7.40;;;;;;;17.34;64.98;99365.30;232922;214;146766;-58
2023/09/30 05:51:37;;;;;;;9.10;6.50;;;;;;;17.37;65.06;99368.06;232712;214;138761;-59
2023/09/30 05:56:45;;;;;;;13.00;7.20;;;;;;;17.41;65.23;99368.44;232666;214;138252;-60
2023/09/30 06:01:49;;;;;;;12.80;8.50;;;;;;;17.49;65.47;99371.72;232735;214;147689;-61
2023/09/30 06:06:53;;;;;;;;;;;;;;;17.60;65.69;99373.46;232898;214;139277;-61
2023/09/30 06:11:57;;;;;;;14.40;7.90;;;;;;;17.63;66.04;99376.27;232800;214;132914;-60
2023/09/30 06:17:01;;;;;;;13.70;8.30;;;;;;;17.66;66.27;99374.70;232770;214;149926;-57
2023/09/30 06:22:05;;;;;;;14.30;8.20;;;;;;;17.70;66.33;99375.81;232736;214;140823;-60
2023/09/30 06:27:13;;;;;;;12.40;8.50;;;;;;;17.75;66.43;99381.14;232783;214;137196;-60
2023/09/30 06:32:16;;;;;;;12.80;8.50;;;;;;;17.78;66.45;99387.80;232584;214;148763;-61
2023/09/30 06:37:19;;;;;;;14.70;8.70;;;;;;;17.77;66.64;99394.73;232804;214;137656;-61
2023/09/30 06:42:24;;;;;;;15.30;8.10;;;;;;;17.74;66.87;99402.27;232718;214;137289;-63
2023/09/30 06:47:30;;;;;;;11.30;7.00;;;;;;;17.73;67.18;99405.39;232861;214;147869;-62
2023/09/30 06:52:38;;;;;;;11.70;6.70;;;;;;;17.79;67.33;99409.98;232767;214;138017;-63
2023/09/30 06:57:42;;;;;;;13.50;7.20;;;;;;;17.90;67.28;99421.02;232857;214;137936;-61
2023/09/30 07:02:46;;;;;;;10.60;7.20;;;;;;;18.01;67.20;99430.09;232709;214;147860;-59
2023/09/30 07:07:51;;;;;;;13.40;7.90;;;;;;;18.07;67.40;99438.58;232699;214;138018;-61
2023/09/30 07:12:55;;;;;;;12.40;7.80;;;;;;;18.09;67.64;99443.38;232805;214;136911;-60
2023/09/30 07:17:59;;;;;;;13.20;8.30;;;;;;;18.12;68.23;99447.26;232793;214;148567;-62
2023/09/30 07:23:04;;;;;;;14.30;9.10;;;;;;;18.07;68.73;99452.79;232782;214;139726;-60
2023/09/30 07:28:21;;;;;;;14.10;8.10;;;;;;;18.05;69.26;99453.33;232820;214;138232;-61
2023/09/30 07:33:25;;;;;;;12.00;7.80;;;;;;;18.00;69.90;99462.38;232740;214;148595;-61
2023/09/30 07:38:29;;;;;;;9.80;7.40;;;;;;;18.01;70.17;99470.72;232709;214;139551;-61
2023/09/30 07:43:33;;;;;;;11.40;8.20;;;;;;;18.11;70.46;99476.52;232650;214;138006;-61
2023/09/30 07:48:36;;;;;;;13.40;8.90;;;;;;;18.20;70.71;99479.31;232888;214;147560;-63
2023/09/30 07:53:40;;;;;;;15.40;8.80;;;;;;;18.23;70.80;99490.14;232838;214;139779;-62
2023/09/30 07:58:44;;;;;;;12.90;9.20;;;;;;;18.24;71.00;99495.45;232759;214;137787;-63
2023/09/30 08:03:49;;;;;;;11.60;9.20;;;;;;;18.24;71.27;99494.77;232659;214;147306;-67
2023/09/30 08:08:54;;;;;;;14.80;8.40;;;;;;;18.24;71.86;99498.55;232750;214;138864;-67
2023/09/30 08:13:59;;;;;;;14.20;9.10;;;;;;;18.28;72.15;99499.77;232571;214;140852;-65
2023/09/30 08:19:03;;;;;;;14.80;10.20;;;;;;;18.38;72.38;99499.13;232776;214;148797;-64
2023/09/30 08:24:08;;;;;;;13.30;10.40;;;;;;;18.47;72.66;99500.48;232773;214;138051;-68
2023/09/30 08:29:12;;;;;;;17.00;11.00;;;;;;;18.55;72.82;99504.27;232744;214;137390;-63
2023/09/30 08:34:17;;;;;;;14.30;10.40;;;;;;;18.62;72.85;99507.62;232643;214;148985;-61
2023/09/30 08:39:21;;;;;;;16.70;11.10;;;;;;;18.63;72.93;99512.02;232768;214;138902;-64
2023/09/30 08:44:26;;;;;;;15.70;9.70;;;;;;;18.59;72.93;99515.02;232607;214;138309;-64
2023/09/30 08:49:41;;;;;;;16.80;10.40;;;;;;;18.58;73.03;99509.59;232792;214;146324;-67
2023/09/30 08:54:44;;;;;;;17.30;11.20;;;;;;;18.64;73.29;99512.42;232755;214;140893;-64
2023/09/30 08:59:49;;;;;;;22.00;11.10;;;;;;;18.71;73.22;99519.75;232775;214;137934;-62
2023/09/30 09:04:53;;;;;;;17.30;11.10;;;;;;;18.73;73.36;99521.80;232833;214;148202;-63
2023/09/30 09:10:12;;;;;;;17.20;11.70;;;;;;;18.70;73.49;99520.94;232799;213;139130;-58
2023/09/30 09:15:28;;;;;;;17.10;10.70;;;;;;;18.70;73.72;99510.33;232757;214;138849;-62
2023/09/30 09:20:32;;;;;;;139.30;105.60;;;;;;;18.73;73.90;99517.27;232756;214;147562;-59
2023/09/30 09:25:39;;;;;;;18.80;12.90;;;;;;;18.84;73.71;99519.75;232717;214;138980;-59
2023/09/30 09:30:43;;;;;;;20.40;12.50;;;;;;;18.85;73.93;99516.04;232814;214;137068;-60
2023/09/30 09:35:48;;;;;;;19.10;12.00;;;;;;;18.86;74.27;99514.71;232762;214;148315;-60
2023/09/30 09:40:59;;;;;;;19.40;11.50;;;;;;;18.83;74.46;99511.32;232865;214;139714;-59
2023/09/30 09:46:07;;;;;;;27.40;20.40;;;;;;;18.85;75.01;99509.90;232795;214;137813;-59
2023/09/30 09:51:12;;;;;;;19.40;10.50;;;;;;;18.88;75.16;99509.84;232727;214;147655;-61
2023/09/30 09:56:19;;;;;;;15.20;11.60;;;;;;;18.98;75.14;99511.99;232639;214;138877;-59
2023/09/30 10:01:23;;;;;;;16.90;12.50;;;;;;;19.04;74.94;99510.50;232860;214;137806;-60
2023/09/30 10:06:28;;;;;;;19.20;13.00;;;;;;;19.00;74.74;99519.33;232760;214;149747;-58
2023/09/30 10:11:32;;;;;;;21.20;12.80;;;;;;;18.96;75.32;99521.33;232695;214;138815;-62
2023/09/30 10:16:39;;;;;;;16.30;11.20;;;;;;;18.90;75.48;99516.99;232781;214;140855;-60
2023/09/30 10:22:20;;;;;;;17.50;11.30;;;;;;;18.85;76.03;99520.11;232747;214;148096;-60
2023/09/30 10:27:24;;;;;;;22.00;12.10;;;;;;;18.83;76.63;99523.35;232722;214;138897;-59
2023/09/30 10:32:58;;;;;;;17.30;12.00;;;;;;;18.81;77.12;99522.52;232749;214;137590;-59
2023/09/30 10:38:27;;;;;;;15.00;11.80;;;;;;;18.77;77.46;99529.52;232638;214;148430;-59
2023/09/30 10:43:41;;;;;;;74.30;64.00;;;;;;;18.69;78.07;99531.27;232759;214;138827;-61
2023/09/30 10:48:45;;;;;;;22.50;12.50;;;;;;;18.60;77.93;99532.04;232831;214;137622;-63
2023/09/30 10:53:57;;;;;;;15.50;11.00;;;;;;;18.49;78.16;99537.98;232796;214;147490;-64
2023/09/30 10:59:02;;;;;;;14.00;10.90;;;;;;;18.34;78.49;99536.41;232693;214;141554;-58
2023/09/30 11:04:08;;;;;;;18.90;11.10;;;;;;;18.20;79.02;99535.81;232785;214;138403;-65
2023/09/30 11:09:21;;;;;;;14.00;10.10;;;;;;;18.06;79.89;99537.78;232630;214;149353;-61
2023/09/30 11:14:27;;;;;;;13.30;10.10;;;;;;;17.97;80.30;99542.27;232709;214;139244;-61
2023/09/30 11:19:45;;;;;;;12.00;9.80;;;;;;;17.95;80.74;99539.96;232803;214;138804;-64
2023/09/30 11:24:49;;;;;;;14.40;10.20;;;;;;;17.95;81.13;99542.30;232771;214;147711;-64
2023/09/30 11:29:53;;;;;;;10.60;8.00;;;;;;;17.92;81.49;99544.90;232751;214;139726;-64
2023/09/30 11:34:58;;;;;;;8.30;6.90;;;;;;;17.90;81.86;99543.09;232671;214;137852;-61
2023/09/30 11:40:13;;;;;;;8.70;7.70;;;;;;;17.92;82.08;99545.27;232801;214;149569;-62
2023/09/30 11:45:18;;;;;;;;;;;;;;;17.93;82.49;99545.14;232714;214;138703;-63
2023/09/30 11:50:24;;;;;;;10.60;8.30;;;;;;;17.95;82.62;99539.77;232730;213;132817;-63
2023/09/30 11:55:28;;;;;;;7.70;5.10;;;;;;;17.95;82.65;99543.59;232781;214;149876;-61
2023/09/30 12:00:32;;;;;;;5.90;4.60;;;;;;;17.94;82.93;99540.44;232677;214;138357;-63
2023/09/30 12:05:36;;;;;;;5.20;4.10;;;;;;;18.00;83.25;99536.53;232863;214;138395;-63
2023/09/30 12:10:40;;;;;;;6.40;4.10;;;;;;;18.05;83.44;99536.43;232738;214;148287;-63
2023/09/30 12:15:45;;;;;;;4.70;3.50;;;;;;;18.07;83.36;99538.21;232819;214;139176;-63
2023/09/30 12:20:54;;;;;;;6.00;3.50;;;;;;;18.05;83.45;99536.23;232610;214;136967;-64
2023/09/30 12:25:58;;;;;;;3.90;3.00;;;;;;;18.07;83.75;99542.69;232651;214;147565;-63
2023/09/30 12:31:20;;;;;;;6.40;4.20;;;;;;;18.18;83.97;99542.30;232677;214;139424;-61
2023/09/30 12:36:24;;;;;;;4.00;3.70;;;;;;;18.24;83.93;99543.58;232747;214;137803;-62
2023/09/30 12:41:29;;;;;;;6.50;4.00;;;;;;;18.26;83.77;99548.13;232861;214;147904;-60
2023/09/30 12:46:36;;;;;;;256.70;179.90;;;;;;;18.26;84.03;99542.71;232730;214;139349;-62
2023/09/30 12:51:40;;;;;;;31.00;27.70;;;;;;;18.38;84.27;99539.50;232689;214;138187;-62
2023/09/30 12:56:46;;;;;;;20.20;16.20;;;;;;;18.48;84.16;99535.10;232728;214;148408;-63
2023/09/30 13:01:52;;;;;;;5.60;4.50;;;;;;;18.52;83.97;99532.23;232834;214;138806;-62
2023/09/30 13:06:56;;;;;;;9.00;4.50;;;;;;;18.54;84.05;99535.95;232910;214;138038;-61
2023/09/30 13:12:00;;;;;;;5.80;5.10;;;;;;;18.62;84.13;99533.64;232769;214;147513;-62
2023/09/30 13:17:03;;;;;;;7.70;4.90;;;;;;;18.74;84.11;99534.23;232678;214;138642;-61
2023/09/30 13:22:12;;;;;;;5.70;5.10;;;;;;;18.74;83.86;99534.42;232689;214;137203;-61
2023/09/30 13:27:21;;;;;;;11.80;9.40;;;;;;;18.73;84.08;99539.75;232722;214;148422;-61
2023/09/30 13:32:25;;;;;;;8.80;5.50;;;;;;;18.77;84.11;99537.58;232671;214;140004;-64
2023/09/30 13:37:33;;;;;;;9.10;7.10;;;;;;;18.82;84.22;99538.57;232843;214;137156;-63
2023/09/30 13:42:36;;;;;;;18.00;15.50;;;;;;;18.89;84.48;99543.30;232822;214;148158;-64
2023/09/30 13:47:41;;;;;;;8.30;6.80;;;;;;;18.88;84.31;99546.34;232742;214;137552;-59
2023/09/30 13:52:45;;;;;;;7.50;6.30;;;;;;;18.86;84.48;99550.23;232843;214;138053;-61
2023/09/30 13:57:49;;;;;;;8.90;7.00;;;;;;;18.88;84.08;99550.65;232842;215;147287;-60
2023/09/30 14:02:53;;;;;;;8.30;6.10;;;;;;;18.88;83.88;99554.04;232811;215;139734;-61
2023/09/30 14:07:58;;;;;;;8.00;5.90;;;;;;;18.87;83.91;99555.56;232756;215;136626;-60
2023/09/30 14:13:03;;;;;;;6.90;4.50;;;;;;;18.80;83.64;99561.09;232952;214;147456;-60
2023/09/30 14:18:07;;;;;;;7.30;5.30;;;;;;;18.69;82.75;99564.73;232775;214;150288;-62
2023/09/30 14:23:11;;;;;;;66.80;59.50;;;;;;;18.63;82.76;99569.52;232918;215;137284;-63
2023/09/30 14:28:16;;;;;;;9.10;6.00;;;;;;;18.76;82.32;99574.00;232900;214;147707;-64
2023/09/30 14:33:20;;;;;;;10.00;5.70;;;;;;;18.75;81.10;99572.45;232733;214;139271;-61
2023/09/30 14:38:25;;;;;;;7.90;4.80;;;;;;;18.62;80.50;99577.29;232840;214;137146;-62
2023/09/30 14:43:29;;;;;;;8.50;4.00;;;;;;;18.47;80.48;99579.51;232920;215;146823;-62
2023/09/30 14:48:33;;;;;;;8.70;5.10;;;;;;;18.48;80.59;99580.38;232727;214;138632;-62
2023/09/30 14:53:37;;;;;;;5.80;4.60;;;;;;;18.38;79.81;99586.02;232781;215;137939;-62
2023/09/30 14:58:42;;;;;;;15.00;11.90;;;;;;;18.26;79.59;99590.50;232847;214;147687;-62
2023/09/30 15:03:45;;;;;;;8.30;4.30;;;;;;;18.16;79.47;99592.21;232883;215;138543;-61
2023/09/30 15:08:49;;;;;;;8.10;3.80;;;;;;;18.14;79.28;99594.02;232812;214;140497;-61
2023/09/30 15:13:53;;;;;;;8.20;4.10;;;;;;;18.15;79.28;99594.42;232960;214;147543;-61
2023/09/30 15:18:57;;;;;;;10.30;6.10;;;;;;;18.21;79.03;99605.13;232997;215;150592;-56
2023/09/30 15:24:02;;;;;;;9.70;5.10;;;;;;;18.39;79.37;99602.53;232827;214;136942;-58
2023/09/30 15:29:06;;;;;;;6.50;3.90;;;;;;;18.57;78.52;99611.35;232843;214;147243;-62
2023/09/30 15:34:11;;;;;;;12.00;4.00;;;;;;;18.63;77.30;99614.95;232942;215;139272;-61
2023/09/30 15:39:15;;;;;;;7.00;4.30;;;;;;;18.70;76.80;99616.58;232823;214;138126;-61
2023/09/30 15:44:19;;;;;;;8.30;4.30;;;;;;;18.79;76.59;99623.52;232635;214;147312;-62
2023/09/30 15:49:22;;;;;;;8.90;4.30;;;;;;;18.86;76.31;99627.04;232813;214;139402;-61
2023/09/30 15:54:26;;;;;;;7.70;4.00;;;;;;;18.87;76.28;99633.27;232765;214;136673;-62
2023/09/30 15:59:30;;;;;;;468.00;350.30;;;;;;;18.90;76.14;99647.75;232795;214;149000;-62
2023/09/30 16:04:34;;;;;;;17.70;11.10;;;;;;;18.79;75.98;99655.71;232780;215;138899;-62
2023/09/30 16:09:38;;;;;;;15.50;5.40;;;;;;;18.56;75.87;99659.80;232805;215;137258;-63
2023/09/30 16:14:42;;;;;;;14.80;8.60;;;;;;;18.32;76.39;99661.16;232876;214;148967;-60
2023/09/30 16:19:46;;;;;;;22.60;15.30;;;;;;;18.15;77.49;99669.20;232962;215;138733;-62
2023/09/30 16:24:50;;;;;;;10.90;5.80;;;;;;;17.98;77.80;99682.11;232874;214;139343;-62
2023/09/30 16:29:55;;;;;;;13.90;7.40;;;;;;;17.85;78.39;99691.42;232703;214;148037;-61
2023/09/30 16:34:59;;;;;;;14.60;8.00;;;;;;;17.82;78.64;99699.91;232819;214;138872;-62
2023/09/30 16:40:05;;;;;;;124.80;85.90;;;;;;;17.75;78.92;99701.01;232797;215;136997;-61
2023/09/30 16:45:09;;;;;;;21.40;14.70;;;;;;;17.69;79.23;99710.25;232827;214;146360;-61
2023/09/30 16:50:12;;;;;;;38.90;31.40;;;;;;;17.61;79.11;99712.17;232712;215;138041;-58
2023/09/30 16:55:16;;;;;;;16.60;10.70;;;;;;;17.61;79.26;99718.08;232894;214;138595;-62
2023/09/30 17:00:21;;;;;;;17.40;10.70;;;;;;;17.56;79.04;99724.27;232792;214;148688;-62
2023/09/30 17:05:26;;;;;;;15.80;9.90;;;;;;;17.50;79.23;99730.30;232862;207;142030;-60
2023/09/30 17:10:32;;;;;;;15.80;8.70;;;;;;;17.39;79.42;99734.73;232821;215;136939;-62
2023/09/30 17:15:41;;;;;;;18.70;9.00;;;;;;;17.31;79.55;99734.13;232794;214;146288;-60
2023/09/30 17:20:45;;;;;;;15.20;9.10;;;;;;;17.28;79.80;99739.43;232864;215;138874;-62
2023/09/30 17:25:50;;;;;;;75.50;55.10;;;;;;;17.27;79.90;99740.39;233079;215;137804;-61
2023/09/30 17:30:54;;;;;;;16.40;10.00;;;;;;;17.29;79.94;99744.20;233027;213;148255;-61
2023/09/30 17:36:05;;;;;;;18.20;9.10;;;;;;;17.16;79.93;99760.60;233235;214;139436;-61
2023/09/30 17:41:09;;;;;;;14.00;8.20;;;;;;;17.01;80.32;99768.21;233019;214;138294;-62
2023/09/30 17:46:17;;;;;;;19.00;10.40;;;;;;;16.97;80.80;99771.92;232908;215;147212;-60
2023/09/30 17:51:21;;;;;;;18.90;9.90;;;;;;;16.95;80.87;99778.67;232979;215;140494;-60
2023/09/30 17:56:26;;;;;;;17.90;9.10;;;;;;;16.88;80.89;99778.69;233018;215;137569;-61
2023/09/30 18:01:30;;;;;;;15.80;8.20;;;;;;;16.76;80.99;99778.17;232997;215;147569;-60
2023/09/30 18:06:34;;;;;;;269.50;195.30;;;;;;;16.73;81.27;99780.19;232886;215;140904;-60
2023/09/30 18:11:39;;;;;;;18.70;9.70;;;;;;;16.79;81.11;99787.08;232959;215;137825;-60
2023/09/30 18:16:43;;;;;;;12.80;8.10;;;;;;;16.72;80.62;99793.49;233004;215;147673;-62
2023/09/30 18:21:48;;;;;;;11.10;7.40;;;;;;;16.66;80.20;99800.19;232955;215;139750;-68
2023/09/30 18:26:51;;;;;;;14.00;7.90;;;;;;;16.54;80.13;99808.65;233009;215;137446;-70
2023/09/30 18:31:55;;;;;;;14.00;7.50;;;;;;;16.44;80.13;99814.40;233004;215;148474;-65
2023/09/30 18:36:59;;;;;;;14.70;8.00;;;;;;;16.41;80.28;99815.02;233007;215;139049;-68
2023/09/30 18:42:03;;;;;;;14.60;8.70;;;;;;;16.36;80.35;99810.36;232859;214;137784;-68
2023/09/30 18:47:07;;;;;;;15.00;7.90;;;;;;;16.31;80.41;99815.14;232843;213;147585;-68
2023/09/30 18:52:12;;;;;;;;;;;;;;;16.25;80.45;99813.09;232918;215;138889;-67
2023/09/30 18:57:16;;;;;;;14.40;7.00;;;;;;;16.19;80.36;99814.64;233015;214;133536;-69
2023/09/30 19:02:20;;;;;;;14.00;6.60;;;;;;;16.15;80.41;99827.10;232907;215;147717;-71
2023/09/30 19:07:24;;;;;;;18.20;8.70;;;;;;;16.11;80.57;99825.04;232855;214;139011;-64
2023/09/30 19:12:28;;;;;;;18.40;8.80;;;;;;;16.04;80.84;99832.88;232981;215;137056;-65
2023/09/30 19:17:32;;;;;;;15.20;8.10;;;;;;;15.95;80.86;99819.94;232931;215;148028;-64
2023/09/30 19:22:37;;;;;;;12.00;7.20;;;;;;;15.93;80.95;99809.73;232847;214;139983;-65
2023/09/30 19:27:41;;;;;;;15.60;8.40;;;;;;;15.93;80.90;99814.35;232954;214;137768;-63
2023/09/30 19:32:45;;;;;;;13.00;8.60;;;;;;;15.92;80.80;99816.59;232921;215;148427;-63
2023/09/30 19:37:49;;;;;;;15.00;8.60;;;;;;;15.93;80.76;99824.97;232987;215;138586;-64
2023/09/30 19:42:53;;;;;;;14.80;8.50;;;;;;;15.96;80.55;99840.09;232980;215;137236;-63
2023/09/30 19:47:57;;;;;;;16.60;7.70;;;;;;;15.91;80.54;99849.61;232916;215;148309;-64
2023/09/30 19:53:03;;;;;;;15.20;8.50;;;;;;;15.86;80.52;99853.66;232961;215;139086;-63
2023/09/30 19:58:07;;;;;;;16.70;8.80;;;;;;;15.80;80.54;99851.80;232912;214;137060;-71
2023/09/30 20:03:11;;;;;;;15.90;8.70;;;;;;;15.76;80.51;99845.66;233023;215;148575;-66
2023/09/30 20:08:15;;;;;;;16.40;9.40;;;;;;;15.68;80.47;99848.90;232884;215;138915;-69
2023/09/30 20:13:19;;;;;;;13.50;7.90;;;;;;;15.58;80.56;99854.20;232931;215;136995;-67
2023/09/30 20:18:23;;;;;;;12.80;8.00;;;;;;;15.49;80.64;99850.73;232883;215;148422;-66
2023/09/30 20:23:27;;;;;;;16.60;8.50;;;;;;;15.45;80.67;99852.06;232769;214;138728;-64
2023/09/30 20:28:32;;;;;;;15.40;8.50;;;;;;;15.40;80.53;99854.75;232786;214;138230;-66
2023/09/30 20:33:36;;;;;;;12.00;8.80;;;;;;;15.28;80.53;99856.66;232969;215;148233;-67
2023/09/30 20:38:40;;;;;;;13.70;8.10;;;;;;;15.13;80.60;99859.77;232874;215;139976;-65
2023/09/30 20:43:44;;;;;;;13.00;7.50;;;;;;;15.01;80.56;99861.70;232993;214;138011;-62
2023/09/30 20:48:49;;;;;;;15.90;8.80;;;;;;;14.95;80.48;99850.62;233065;215;147704;-62
2023/09/30 20:53:53;;;;;;;15.10;8.00;;;;;;;14.89;80.22;99850.67;232825;215;139681;-63
2023/09/30 20:58:57;;;;;;;16.20;7.90;;;;;;;14.80;80.09;99848.23;232882;215;137123;-62
2023/09/30 21:04:02;;;;;;;13.30;7.40;;;;;;;14.71;79.97;99852.41;232876;215;147571;-67
2023/09/30 21:09:06;;;;;;;13.60;6.80;;;;;;;14.64;79.98;99856.98;232938;215;141621;-70
2023/09/30 21:14:09;;;;;;;15.10;7.60;;;;;;;14.64;79.90;99868.39;232957;215;138244;-70
2023/09/30 21:19:13;;;;;;;13.50;7.80;;;;;;;14.63;79.75;99879.55;232884;215;148583;-64
2023/09/30 21:24:17;;;;;;;16.30;8.20;;;;;;;14.55;79.49;99877.06;233058;215;140783;-63
2023/09/30 21:29:21;;;;;;;17.00;8.20;;;;;;;14.44;79.59;99870.94;232960;215;137395;-64
2023/09/30 21:34:25;;;;;;;15.80;7.80;;;;;;;14.40;79.60;99877.77;232939;215;146339;-63
2023/09/30 21:39:29;;;;;;;14.30;7.40;;;;;;;14.38;79.46;99874.14;232920;215;139301;-64
2023/09/30 21:44:33;;;;;;;12.90;7.80;;;;;;;14.35;79.39;99875.96;232938;215;137003;-65
2023/09/30 21:49:37;;;;;;;18.30;9.00;;;;;;;14.33;79.25;99875.74;232970;215;147546;-66
2023/09/30 21:54:42;;;;;;;21.00;8.10;;;;;;;14.27;79.10;99885.45;232888;215;139490;-64
2023/09/30 21:59:45;;;;;;;15.20;7.90;;;;;;;14.15;79.28;99886.69;232990;215;137510;-65
2023/09/30 22:04:49;;;;;;;15.30;7.80;;;;;;;14.11;79.45;99893.20;233018;215;147926;-64
2023/09/30 22:09:53;;;;;;;16.10;8.90;;;;;;;14.09;79.40;99895.11;232902;215;138988;-63
2023/09/30 22:14:58;;;;;;;16.80;8.20;;;;;;;14.07;79.26;99894.52;232900;215;137125;-64
2023/09/30 22:20:01;;;;;;;19.60;9.10;;;;;;;14.03;79.19;99890.85;232891;215;147493;-63
2023/09/30 22:25:06;;;;;;;16.50;8.70;;;;;;;14.01;79.12;99892.21;233030;215;138013;-71
2023/09/30 22:30:11;;;;;;;17.40;8.20;;;;;;;13.98;79.04;99898.13;232954;215;137903;-72
2023/09/30 22:35:15;;;;;;;;;;;;;;;14.00;78.97;99903.56;232961;215;147644;-72
2023/09/30 22:40:18;;;;;;;16.00;8.00;;;;;;;14.02;78.69;99894.16;233003;215;139887;-73
2023/09/30 22:45:23;;;;;;;15.20;8.10;;;;;;;14.01;78.44;99893.33;232958;215;138342;-69
2023/09/30 22:50:27;;;;;;;15.10;7.90;;;;;;;14.00;78.33;99891.95;232922;214;148268;-71
2023/09/30 22:55:32;;;;;;;17.70;7.90;;;;;;;13.96;78.04;99898.81;232828;214;138427;-70
2023/09/30 23:00:36;;;;;;;13.80;8.30;;;;;;;13.91;77.94;99898.17;232939;214;137714;-70
2023/09/30 23:05:39;;;;;;;11.50;7.30;;;;;;;13.86;77.83;99899.02;232925;214;147583;-69
2023/09/30 23:10:43;;;;;;;14.10;7.50;;;;;;;13.89;78.18;99895.51;232835;214;138752;-61
2023/09/30 23:15:47;;;;;;;15.50;7.30;;;;;;;13.91;77.68;99908.22;232917;214;137624;-61
2023/09/30 23:20:51;;;;;;;16.60;7.90;;;;;;;13.91;77.40;99913.54;232871;215;147524;-61